Time;durP1;ratioP1;P1;durP2;ratioP2;P2;SDS_P1;SDS_P2;PMS_P1;PMS_P2;Temp;Humidity;BMP_temperature;BMP_pressure;BME280_temperature;BME280_humidity;BME280_pressure;Samples;Min_cycle;Max_cycle;Signal;HPM_P1;HPM_P2
2023/12/05 00:00:37;;;;;;;13.57;7.50;;;;;;;;;;5053714;28;20059;-82
2023/12/05 00:03:04;;;;;;;15.35;8.15;;;;;;;;;;5070447;28;20052;-81
2023/12/05 00:05:31;;;;;;;14.50;7.63;;;;;;;;;;5053701;28;20079;-81
2023/12/05 00:07:57;;;;;;;12.25;7.22;;;;;;;;;;5091149;28;20060;-82
2023/12/05 00:10:24;;;;;;;15.02;8.52;;;;;;;;;;5090508;28;20056;-82
2023/12/05 00:12:51;;;;;;;11.93;7.35;;;;;;;;;;5049923;28;20056;-82
2023/12/05 00:15:18;;;;;;;10.90;6.55;;;;;;;;;;5071048;28;20128;-82
2023/12/05 00:17:45;;;;;;;12.18;6.65;;;;;;;;;;5041889;28;20080;-79
2023/12/05 00:20:12;;;;;;;11.85;5.82;;;;;;;;;;5091531;28;20056;-82
2023/12/05 00:22:39;;;;;;;10.38;6.53;;;;;;;;;;5058593;28;20128;-80
2023/12/05 00:25:07;;;;;;;9.80;5.55;;;;;;;;;;5091505;28;20052;-82
2023/12/05 00:27:34;;;;;;;10.40;5.45;;;;;;;;;;5071218;28;20056;-82
2023/12/05 00:30:01;;;;;;;9.45;6.25;;;;;;;;;;5092386;28;20076;-81
2023/12/05 00:32:27;;;;;;;10.13;6.40;;;;;;;;;;5055498;28;20049;-82
2023/12/05 00:34:54;;;;;;;11.45;6.38;;;;;;;;;;5057807;28;20048;-80
2023/12/05 00:37:21;;;;;;;9.70;5.65;;;;;;;;;;5092438;28;20080;-81
2023/12/05 00:39:48;;;;;;;12.68;5.80;;;;;;;;;;5092505;28;20063;-81
2023/12/05 00:42:14;;;;;;;10.95;5.57;;;;;;;;;;5075663;28;20102;-82
2023/12/05 00:44:41;;;;;;;10.55;5.97;;;;;;;;;;5077202;28;20049;-82
2023/12/05 00:47:08;;;;;;;10.50;5.85;;;;;;;;;;5066688;28;20079;-83
2023/12/05 00:49:35;;;;;;;8.00;5.13;;;;;;;;;;5060782;28;20477;-84
2023/12/05 00:52:02;;;;;;;9.35;5.63;;;;;;;;;;5095433;28;20071;-82
2023/12/05 00:54:29;;;;;;;10.20;5.88;;;;;;;;;;5078261;28;20080;-81
2023/12/05 00:56:56;;;;;;;8.30;5.63;;;;;;;;;;5061380;28;20112;-83
2023/12/05 00:59:23;;;;;;;7.75;5.10;;;;;;;;;;5077205;28;20079;-82
2023/12/05 01:01:50;;;;;;;9.35;5.22;;;;;;;;;;5076723;28;20517;-81
2023/12/05 01:04:17;;;;;;;9.20;4.93;;;;;;;;;;5040710;28;20084;-82
2023/12/05 01:06:44;;;;;;;9.60;5.80;;;;;;;;;;5073371;28;20088;-82
2023/12/05 01:09:11;;;;;;;6.22;4.47;;;;;;;;;;5075804;28;20060;-82
2023/12/05 01:11:38;;;;;;;9.95;4.60;;;;;;;;;;5055460;28;20049;-82
2023/12/05 01:14:05;;;;;;;6.95;4.72;;;;;;;;;;5054831;28;20079;-82
2023/12/05 01:16:32;;;;;;;8.30;5.25;;;;;;;;;;5055846;28;20133;-81
2023/12/05 01:18:59;;;;;;;6.72;4.72;;;;;;;;;;5059535;28;20048;-82
2023/12/05 01:21:25;;;;;;;6.38;4.22;;;;;;;;;;5054690;28;20466;-82
2023/12/05 01:23:52;;;;;;;6.70;4.32;;;;;;;;;;5041288;28;20059;-82
2023/12/05 01:26:19;;;;;;;6.15;3.42;;;;;;;;;;5076191;28;20498;-82
2023/12/05 01:28:46;;;;;;;5.75;3.45;;;;;;;;;;5091314;28;20048;-82
2023/12/05 01:31:13;;;;;;;5.15;3.88;;;;;;;;;;5058035;28;20064;-82
2023/12/05 01:33:40;;;;;;;6.60;4.15;;;;;;;;;;5039199;28;20049;-82
2023/12/05 01:36:10;;;;;;;6.22;3.70;;;;;;;;;;5074813;28;20135;-83
2023/12/05 01:38:37;;;;;;;6.63;3.80;;;;;;;;;;5057834;28;20520;-82
2023/12/05 01:41:04;;;;;;;5.93;3.70;;;;;;;;;;5054602;28;20057;-81
2023/12/05 01:43:31;;;;;;;6.28;3.65;;;;;;;;;;5053707;28;20060;-82
2023/12/05 01:45:57;;;;;;;5.07;3.38;;;;;;;;;;5040633;28;20079;-81
2023/12/05 01:48:24;;;;;;;4.40;3.38;;;;;;;;;;5090823;28;20083;-82
2023/12/05 01:50:52;;;;;;;4.45;3.17;;;;;;;;;;5039779;28;20056;-79
2023/12/05 01:53:20;;;;;;;5.88;3.50;;;;;;;;;;5037498;28;20503;-81
2023/12/05 01:55:46;;;;;;;5.05;3.05;;;;;;;;;;5037686;28;20056;-81
2023/12/05 01:58:13;;;;;;;4.18;2.65;;;;;;;;;;5036918;28;20502;-82
2023/12/05 02:00:40;;;;;;;3.90;2.28;;;;;;;;;;5037538;28;20468;-81
2023/12/05 02:03:08;;;;;;;4.03;2.50;;;;;;;;;;5053700;28;20415;-81
2023/12/05 02:05:35;;;;;;;4.65;2.90;;;;;;;;;;5049916;28;20061;-82
2023/12/05 02:08:02;;;;;;;3.67;2.65;;;;;;;;;;5061364;28;20110;-82
2023/12/05 02:10:29;;;;;;;4.38;2.80;;;;;;;;;;5062400;28;20515;-82
2023/12/05 02:12:56;;;;;;;3.50;2.65;;;;;;;;;;5056247;28;20501;-82
2023/12/05 02:15:23;;;;;;;3.47;2.85;;;;;;;;;;5073849;28;20099;-81
2023/12/05 02:18:28;;;;;;;4.10;2.75;;;;;;;;;;5092660;28;20056;-81
2023/12/05 02:21:10;;;;;;;4.40;2.97;;;;;;;;;;5034057;28;20057;-81
2023/12/05 02:23:46;;;;;;;2.92;2.47;;;;;;;;;;5038757;28;20060;-80
2023/12/05 02:26:51;;;;;;;3.95;3.08;;;;;;;;;;5072362;28;20490;-79
2023/12/05 02:29:18;;;;;;;3.67;2.33;;;;;;;;;;5050934;28;20079;-79
2023/12/05 02:31:44;;;;;;;3.85;2.45;;;;;;;;;;5050881;28;20135;-80
2023/12/05 02:34:11;;;;;;;3.03;2.63;;;;;;;;;;5050242;28;20829;-81
2023/12/05 02:36:44;;;;;;;4.35;2.78;;;;;;;;;;5055612;28;20056;-80
2023/12/05 02:39:19;;;;;;;;;;;;;;;;;;5088673;28;20116;-79
2023/12/05 02:41:46;;;;;;;4.50;2.67;;;;;;;;;;5099594;28;20318;-80
2023/12/05 02:44:13;;;;;;;4.00;2.67;;;;;;;;;;5047172;28;20494;-79
2023/12/05 02:46:41;;;;;;;4.97;2.83;;;;;;;;;;5037367;28;20106;-78
2023/12/05 02:49:08;;;;;;;3.97;2.90;;;;;;;;;;5073591;28;20456;-80
2023/12/05 02:51:35;;;;;;;4.43;3.00;;;;;;;;;;5041718;28;20049;-80
2023/12/05 02:54:06;;;;;;;3.65;2.90;;;;;;;;;;5072658;28;20079;-79
2023/12/05 02:56:36;;;;;;;3.80;2.72;;;;;;;;;;5057127;28;20571;-79
2023/12/05 02:59:03;;;;;;;4.78;3.08;;;;;;;;;;5093174;28;20048;-79
2023/12/05 03:01:37;;;;;;;3.15;2.72;;;;;;;;;;5068860;28;20530;-79
2023/12/05 03:04:03;;;;;;;4.78;3.20;;;;;;;;;;5044566;28;20060;-79
2023/12/05 03:06:30;;;;;;;4.63;2.80;;;;;;;;;;5063502;28;20056;-81
2023/12/05 03:09:01;;;;;;;4.40;2.70;;;;;;;;;;5059869;28;20060;-81
2023/12/05 03:11:28;;;;;;;3.67;2.30;;;;;;;;;;5073351;28;20049;-81
2023/12/05 03:13:55;;;;;;;5.75;3.25;;;;;;;;;;5064451;28;20083;-81
2023/12/05 03:16:21;;;;;;;4.90;3.00;;;;;;;;;;5059319;28;20061;-82
2023/12/05 03:18:48;;;;;;;4.63;3.53;;;;;;;;;;5066607;28;20060;-80
2023/12/05 03:21:17;;;;;;;3.03;2.28;;;;;;;;;;5055998;28;20419;-82
2023/12/05 03:23:44;;;;;;;4.18;2.90;;;;;;;;;;5071852;28;20461;-82
2023/12/05 03:26:21;;;;;;;4.43;3.33;;;;;;;;;;5036630;28;20437;-81
2023/12/05 03:28:49;;;;;;;3.80;3.05;;;;;;;;;;5056254;28;20075;-80
2023/12/05 03:31:16;;;;;;;3.92;2.90;;;;;;;;;;5055049;28;20053;-80
2023/12/05 03:33:43;;;;;;;5.93;3.08;;;;;;;;;;5054526;28;20048;-78
2023/12/05 03:36:11;;;;;;;3.83;3.10;;;;;;;;;;5040107;28;20057;-81
2023/12/05 03:38:38;;;;;;;5.95;3.17;;;;;;;;;;5056866;28;20086;-81
2023/12/05 03:41:06;;;;;;;5.63;3.00;;;;;;;;;;5059161;28;20052;-79
2023/12/05 03:43:33;;;;;;;3.35;2.50;;;;;;;;;;5076956;28;20387;-79
2023/12/05 03:46:00;;;;;;;4.20;2.65;;;;;;;;;;5073189;28;20057;-80
2023/12/05 03:48:27;;;;;;;4.15;2.75;;;;;;;;;;5072862;28;20056;-80
2023/12/05 03:50:54;;;;;;;4.45;2.53;;;;;;;;;;5077662;28;20706;-79
2023/12/05 03:53:21;;;;;;;2.40;2.20;;;;;;;;;;5093928;28;20053;-80
2023/12/05 03:55:48;;;;;;;3.55;2.80;;;;;;;;;;5059130;28;20057;-81
2023/12/05 03:58:16;;;;;;;4.15;2.30;;;;;;;;;;5076331;28;20083;-80
2023/12/05 04:00:43;;;;;;;5.30;2.58;;;;;;;;;;5085595;28;20053;-81
2023/12/05 04:03:10;;;;;;;3.42;2.50;;;;;;;;;;5077812;28;20076;-81
2023/12/05 04:05:38;;;;;;;4.07;2.60;;;;;;;;;;5064475;28;20068;-80
2023/12/05 04:08:05;;;;;;;3.05;2.08;;;;;;;;;;5091845;28;20057;-80
2023/12/05 04:10:33;;;;;;;3.38;2.50;;;;;;;;;;5068836;28;20520;-80
2023/12/05 04:13:00;;;;;;;5.18;2.83;;;;;;;;;;5050782;28;20312;-81
2023/12/05 04:15:27;;;;;;;5.40;2.80;;;;;;;;;;5054601;28;20056;-80
2023/12/05 04:17:55;;;;;;;3.92;2.47;;;;;;;;;;5075630;28;20057;-80
2023/12/05 04:20:22;;;;;;;6.13;2.42;;;;;;;;;;5071683;28;20057;-79
2023/12/05 04:22:48;;;;;;;4.82;2.47;;;;;;;;;;5057659;28;20106;-80
2023/12/05 04:25:16;;;;;;;6.15;2.20;;;;;;;;;;5056193;28;20056;-78
2023/12/05 04:27:43;;;;;;;4.00;2.50;;;;;;;;;;5072645;28;20560;-81
2023/12/05 04:30:10;;;;;;;3.42;2.70;;;;;;;;;;5053059;28;20048;-81
2023/12/05 04:32:37;;;;;;;3.53;2.28;;;;;;;;;;5069392;28;20063;-79
2023/12/05 04:35:04;;;;;;;4.70;2.65;;;;;;;;;;5065376;28;20521;-81
2023/12/05 04:37:31;;;;;;;4.43;2.95;;;;;;;;;;5041497;28;20057;-79
2023/12/05 04:39:58;;;;;;;4.47;2.75;;;;;;;;;;5068197;28;20464;-80
2023/12/05 04:42:25;;;;;;;4.13;2.95;;;;;;;;;;5057251;28;20048;-80
2023/12/05 04:44:52;;;;;;;3.65;2.70;;;;;;;;;;5055331;28;20048;-78
2023/12/05 04:47:19;;;;;;;5.20;2.90;;;;;;;;;;5057455;28;20110;-79
2023/12/05 04:49:46;;;;;;;4.72;2.40;;;;;;;;;;5073728;28;20457;-80
2023/12/05 04:52:13;;;;;;;4.97;2.85;;;;;;;;;;5066503;28;20049;-80
2023/12/05 04:54:39;;;;;;;9.13;3.95;;;;;;;;;;5066255;28;20445;-81
2023/12/05 04:57:09;;;;;;;4.15;2.80;;;;;;;;;;5074105;28;20052;-80
2023/12/05 04:59:37;;;;;;;4.60;3.10;;;;;;;;;;5073418;28;20048;-79
2023/12/05 05:02:04;;;;;;;4.80;2.42;;;;;;;;;;5073365;28;20048;-79
2023/12/05 05:04:31;;;;;;;3.90;2.63;;;;;;;;;;5040168;28;20275;-79
2023/12/05 05:06:58;;;;;;;5.05;2.80;;;;;;;;;;5057322;28;20060;-79
2023/12/05 05:09:25;;;;;;;4.57;2.58;;;;;;;;;;5076194;28;20102;-80
2023/12/05 05:11:52;;;;;;;3.80;2.47;;;;;;;;;;5055742;28;20061;-77
2023/12/05 05:14:18;;;;;;;3.72;2.60;;;;;;;;;;5070920;28;20087;-77
2023/12/05 05:16:45;;;;;;;3.33;2.38;;;;;;;;;;5066462;28;20494;-77
2023/12/05 05:19:12;;;;;;;3.00;2.35;;;;;;;;;;5064748;28;20053;-78
2023/12/05 05:21:39;;;;;;;2.85;2.47;;;;;;;;;;5057517;28;20079;-77
2023/12/05 05:24:06;;;;;;;4.68;2.70;;;;;;;;;;5053824;28;20052;-78
2023/12/05 05:26:33;;;;;;;6.00;3.00;;;;;;;;;;5050938;28;20060;-77
2023/12/05 05:29:00;;;;;;;4.75;3.20;;;;;;;;;;5086176;28;20060;-78
2023/12/05 05:31:27;;;;;;;3.78;2.30;;;;;;;;;;5046677;28;20122;-77
2023/12/05 05:33:54;;;;;;;5.22;2.90;;;;;;;;;;5071357;28;20052;-81
2023/12/05 05:36:21;;;;;;;5.05;2.50;;;;;;;;;;5058584;28;20060;-77
2023/12/05 05:38:48;;;;;;;4.40;2.50;;;;;;;;;;5035800;28;20048;-78
2023/12/05 05:41:15;;;;;;;3.97;2.65;;;;;;;;;;5053367;28;20118;-79
2023/12/05 05:43:42;;;;;;;3.78;2.55;;;;;;;;;;5061655;28;20049;-79
2023/12/05 05:46:09;;;;;;;4.22;2.42;;;;;;;;;;5066192;28;20044;-79
2023/12/05 05:48:35;;;;;;;2.67;2.15;;;;;;;;;;5056155;28;20060;-80
2023/12/05 05:51:03;;;;;;;4.57;2.03;;;;;;;;;;5090401;28;20060;-80
2023/12/05 05:53:29;;;;;;;5.30;2.58;;;;;;;;;;5072486;28;20086;-81
2023/12/05 05:56:00;;;;;;;3.00;1.98;;;;;;;;;;5073484;28;20048;-80
2023/12/05 05:58:27;;;;;;;2.22;1.75;;;;;;;;;;5074688;28;20049;-80
2023/12/05 06:00:54;;;;;;;3.33;1.98;;;;;;;;;;5052557;28;20557;-79
2023/12/05 06:03:22;;;;;;;2.80;2.00;;;;;;;;;;5040271;28;20418;-79
2023/12/05 06:05:50;;;;;;;3.33;2.00;;;;;;;;;;5068722;28;20510;-79
2023/12/05 06:08:17;;;;;;;4.28;2.30;;;;;;;;;;5068358;28;20236;-80
2023/12/05 06:10:43;;;;;;;4.18;2.50;;;;;;;;;;5071375;28;20044;-80
2023/12/05 06:13:10;;;;;;;3.85;2.80;;;;;;;;;;5072865;28;20525;-79
2023/12/05 06:15:37;;;;;;;3.13;2.50;;;;;;;;;;5085727;28;20919;-79
2023/12/05 06:18:04;;;;;;;3.78;2.03;;;;;;;;;;5050935;28;20057;-81
2023/12/05 06:20:31;;;;;;;5.55;1.98;;;;;;;;;;5055565;28;20072;-79
2023/12/05 06:22:58;;;;;;;5.18;1.90;;;;;;;;;;5067582;28;20521;-80
2023/12/05 06:25:25;;;;;;;4.18;1.92;;;;;;;;;;5066622;28;20049;-80
2023/12/05 06:27:51;;;;;;;2.58;2.00;;;;;;;;;;5057219;28;20053;-79
2023/12/05 06:30:18;;;;;;;5.40;2.33;;;;;;;;;;5059482;28;20053;-79
2023/12/05 06:32:52;;;;;;;3.95;2.35;;;;;;;;;;5058358;28;20064;-78
2023/12/05 06:35:19;;;;;;;4.68;1.95;;;;;;;;;;5079334;28;20056;-79
2023/12/05 06:37:46;;;;;;;5.93;1.90;;;;;;;;;;5078347;28;20098;-79
2023/12/05 06:40:13;;;;;;;4.03;1.90;;;;;;;;;;5081843;28;20049;-81
2023/12/05 06:42:43;;;;;;;2.88;1.80;;;;;;;;;;5077936;28;20040;-80
2023/12/05 06:45:10;;;;;;;3.17;1.90;;;;;;;;;;5058370;28;20530;-79
2023/12/05 06:47:38;;;;;;;4.47;1.65;;;;;;;;;;5072165;28;20060;-80
2023/12/05 06:50:10;;;;;;;4.03;2.10;;;;;;;;;;5093716;28;20101;-81
2023/12/05 06:52:39;;;;;;;4.63;2.63;;;;;;;;;;5041708;28;20049;-82
2023/12/05 06:55:08;;;;;;;4.43;2.10;;;;;;;;;;5056210;28;20061;-80
2023/12/05 06:57:35;;;;;;;3.38;2.40;;;;;;;;;;5053316;28;20112;-82
2023/12/05 07:00:03;;;;;;;6.07;2.80;;;;;;;;;;5055293;28;20079;-82
2023/12/05 07:02:30;;;;;;;3.05;2.08;;;;;;;;;;5046450;28;20040;-81
2023/12/05 07:04:58;;;;;;;4.25;1.90;;;;;;;;;;5071677;28;20053;-81
2023/12/05 07:07:25;;;;;;;2.97;1.73;;;;;;;;;;5057829;28;20048;-79
2023/12/05 07:09:52;;;;;;;3.60;2.13;;;;;;;;;;5068255;28;20064;-81
2023/12/05 07:12:19;;;;;;;6.90;2.28;;;;;;;;;;5071791;28;20518;-82
2023/12/05 07:14:46;;;;;;;3.45;1.98;;;;;;;;;;5060294;28;20041;-83
2023/12/05 07:17:13;;;;;;;2.85;2.00;;;;;;;;;;5090744;28;20071;-82
2023/12/05 07:19:40;;;;;;;2.33;1.80;;;;;;;;;;5049142;28;20041;-86
2023/12/05 07:22:12;;;;;;;2.95;2.00;;;;;;;;;;5061627;28;20417;-82
2023/12/05 07:24:39;;;;;;;2.55;1.83;;;;;;;;;;5072212;28;20395;-79
2023/12/05 07:27:06;;;;;;;6.05;2.50;;;;;;;;;;5082818;28;20068;-81
2023/12/05 07:29:33;;;;;;;3.72;2.08;;;;;;;;;;5036293;28;20049;-80
2023/12/05 07:32:00;;;;;;;4.88;2.78;;;;;;;;;;5061645;28;20056;-82
2023/12/05 07:34:26;;;;;;;3.50;2.03;;;;;;;;;;5050895;28;20108;-81
2023/12/05 07:36:53;;;;;;;5.63;2.80;;;;;;;;;;5057720;28;20223;-81
2023/12/05 07:39:21;;;;;;;7.10;3.33;;;;;;;;;;5069817;28;20494;-81
2023/12/05 07:41:47;;;;;;;3.28;2.05;;;;;;;;;;5077871;28;20062;-82
2023/12/05 07:44:14;;;;;;;3.92;2.75;;;;;;;;;;5041100;28;20107;-81
2023/12/05 07:46:42;;;;;;;6.28;2.40;;;;;;;;;;5040479;28;20079;-82
2023/12/05 07:49:09;;;;;;;3.78;2.10;;;;;;;;;;5056714;28;20060;-82
2023/12/05 07:51:37;;;;;;;4.43;2.25;;;;;;;;;;5055104;28;20250;-81
2023/12/05 07:54:05;;;;;;;3.63;1.70;;;;;;;;;;5057095;28;20048;-78
2023/12/05 07:56:32;;;;;;;3.25;2.05;;;;;;;;;;5051440;28;20132;-79
2023/12/05 07:58:59;;;;;;;3.15;2.25;;;;;;;;;;5052461;28;20060;-82
2023/12/05 08:01:26;;;;;;;7.63;3.00;;;;;;;;;;5045060;28;20076;-83
2023/12/05 08:03:53;;;;;;;4.20;2.35;;;;;;;;;;5059086;28;20052;-80
2023/12/05 08:06:21;;;;;;;6.85;2.60;;;;;;;;;;5085789;28;20051;-79
2023/12/05 08:08:47;;;;;;;4.28;2.35;;;;;;;;;;5072925;28;20059;-80
2023/12/05 08:11:14;;;;;;;3.15;1.98;;;;;;;;;;5080999;28;20049;-80
2023/12/05 08:13:41;;;;;;;4.35;2.08;;;;;;;;;;5093643;28;20044;-84
2023/12/05 08:16:08;;;;;;;5.20;1.90;;;;;;;;;;5055727;28;20092;-80
2023/12/05 08:18:35;;;;;;;4.65;1.58;;;;;;;;;;5053862;28;20136;-80
2023/12/05 08:21:03;;;;;;;2.78;1.85;;;;;;;;;;5076847;28;20169;-83
2023/12/05 08:23:30;;;;;;;9.30;2.25;;;;;;;;;;5090826;28;20579;-79
2023/12/05 08:25:57;;;;;;;1.75;1.38;;;;;;;;;;5073043;28;20060;-79
2023/12/05 08:28:24;;;;;;;4.60;1.42;;;;;;;;;;5064950;28;20076;-79
2023/12/05 08:30:51;;;;;;;2.95;1.48;;;;;;;;;;5066451;28;20048;-81
2023/12/05 08:33:18;;;;;;;4.13;1.73;;;;;;;;;;5055864;28;20067;-82
2023/12/05 08:35:45;;;;;;;4.63;1.67;;;;;;;;;;5074006;28;20068;-81
2023/12/05 08:38:12;;;;;;;4.32;1.85;;;;;;;;;;5053977;28;20083;-79
2023/12/05 08:40:39;;;;;;;5.88;2.03;;;;;;;;;;5071495;28;20048;-79
2023/12/05 08:43:06;;;;;;;3.22;2.05;;;;;;;;;;5086629;28;20060;-81
2023/12/05 08:45:33;;;;;;;4.85;2.42;;;;;;;;;;5057285;28;20051;-81
2023/12/05 08:48:00;;;;;;;4.85;1.52;;;;;;;;;;5072195;28;20083;-82
2023/12/05 08:50:27;;;;;;;4.60;1.90;;;;;;;;;;5062506;28;20082;-79
2023/12/05 08:52:53;;;;;;;2.85;1.33;;;;;;;;;;5075819;28;20112;-77
2023/12/05 08:55:21;;;;;;;3.53;1.40;;;;;;;;;;5089944;28;20048;-79
2023/12/05 08:57:49;;;;;;;2.03;1.40;;;;;;;;;;5060378;28;20079;-80
2023/12/05 09:00:19;;;;;;;3.80;1.20;;;;;;;;;;5091872;28;20287;-82
2023/12/05 09:02:47;;;;;;;4.18;1.63;;;;;;;;;;5057228;28;20577;-80
2023/12/05 09:05:14;;;;;;;2.45;1.38;;;;;;;;;;5060793;28;20080;-80
2023/12/05 09:07:41;;;;;;;3.03;1.35;;;;;;;;;;5074548;28;20624;-81
2023/12/05 09:10:08;;;;;;;3.95;1.80;;;;;;;;;;5074793;28;20053;-77
2023/12/05 09:12:39;;;;;;;4.10;1.70;;;;;;;;;;5036836;28;20056;-81
2023/12/05 09:15:06;;;;;;;2.28;1.40;;;;;;;;;;5071011;28;20045;-78
2023/12/05 09:17:34;;;;;;;1.60;1.15;;;;;;;;;;5068835;28;20057;-79
2023/12/05 09:20:01;;;;;;;3.28;1.75;;;;;;;;;;5067375;28;20044;-79
2023/12/05 09:22:28;;;;;;;3.05;1.38;;;;;;;;;;5063539;28;20457;-79
2023/12/05 09:24:55;;;;;;;2.47;1.42;;;;;;;;;;5047198;28;20049;-79
2023/12/05 09:27:23;;;;;;;2.03;1.10;;;;;;;;;;5057425;28;20064;-78
2023/12/05 09:29:49;;;;;;;3.35;1.40;;;;;;;;;;5069275;28;20066;-79
2023/12/05 09:32:17;;;;;;;3.75;1.23;;;;;;;;;;5069507;28;20111;-79
2023/12/05 09:34:45;;;;;;;2.50;1.52;;;;;;;;;;5072089;28;20044;-79
2023/12/05 09:37:12;;;;;;;7.15;2.10;;;;;;;;;;5067678;28;20094;-79
2023/12/05 09:39:40;;;;;;;0.88;0.85;;;;;;;;;;5069118;28;20048;-78
2023/12/05 09:42:10;;;;;;;2.95;1.85;;;;;;;;;;5079466;28;20524;-79
2023/12/05 09:44:36;;;;;;;1.45;0.90;;;;;;;;;;5075931;28;20097;-79
2023/12/05 09:47:06;;;;;;;3.88;1.45;;;;;;;;;;5037729;28;20053;-79
2023/12/05 09:49:33;;;;;;;1.70;1.00;;;;;;;;;;5061669;28;20106;-79
2023/12/05 09:52:01;;;;;;;2.17;1.17;;;;;;;;;;5047343;28;20423;-83
2023/12/05 09:54:27;;;;;;;2.05;1.00;;;;;;;;;;5060279;28;20049;-77
2023/12/05 09:56:57;;;;;;;2.88;1.15;;;;;;;;;;5084289;28;20065;-82
2023/12/05 09:59:24;;;;;;;3.97;1.13;;;;;;;;;;5087613;28;20051;-80
2023/12/05 10:01:55;;;;;;;4.30;1.65;;;;;;;;;;5047157;28;20460;-82
2023/12/05 10:04:22;;;;;;;5.55;1.48;;;;;;;;;;5057661;28;20644;-78
2023/12/05 10:06:49;;;;;;;1.70;0.80;;;;;;;;;;5070379;28;20055;-79
2023/12/05 10:09:17;;;;;;;3.05;1.02;;;;;;;;;;5062603;28;20423;-79
2023/12/05 10:11:44;;;;;;;1.73;0.85;;;;;;;;;;5067400;28;20052;-77
2023/12/05 10:14:11;;;;;;;1.80;1.20;;;;;;;;;;5069694;28;20044;-79
2023/12/05 10:16:37;;;;;;;2.30;0.80;;;;;;;;;;5081328;28;20082;-80
2023/12/05 10:19:04;;;;;;;1.73;1.20;;;;;;;;;;5080495;28;20056;-81
2023/12/05 10:21:31;;;;;;;2.25;1.52;;;;;;;;;;5058453;28;20056;-80
2023/12/05 10:23:58;;;;;;;2.67;1.38;;;;;;;;;;5065760;28;20057;-81
2023/12/05 10:26:25;;;;;;;2.47;0.80;;;;;;;;;;5044831;28;20114;-81
2023/12/05 10:28:55;;;;;;;2.17;0.80;;;;;;;;;;5068447;28;20540;-81
2023/12/05 10:31:22;;;;;;;1.40;0.75;;;;;;;;;;5055681;28;20087;-81
2023/12/05 10:33:50;;;;;;;1.92;0.63;;;;;;;;;;5050743;28;20049;-81
2023/12/05 10:36:17;;;;;;;2.47;0.80;;;;;;;;;;5059012;28;20057;-80
2023/12/05 10:38:44;;;;;;;1.25;0.80;;;;;;;;;;5054474;28;20059;-79
2023/12/05 10:41:11;;;;;;;2.80;0.75;;;;;;;;;;5034170;28;20079;-81
2023/12/05 10:43:38;;;;;;;1.23;0.90;;;;;;;;;;5055659;28;20430;-81
2023/12/05 10:46:05;;;;;;;1.98;0.93;;;;;;;;;;5038258;28;20399;-80
2023/12/05 10:48:33;;;;;;;1.63;0.93;;;;;;;;;;5056173;28;20048;-80
2023/12/05 10:51:00;;;;;;;0.63;0.50;;;;;;;;;;5066499;28;20055;-80
2023/12/05 10:53:27;;;;;;;2.13;0.80;;;;;;;;;;5062705;28;20048;-80
2023/12/05 10:55:54;;;;;;;1.30;0.55;;;;;;;;;;5054023;28;20414;-81
2023/12/05 10:58:20;;;;;;;4.20;0.73;;;;;;;;;;5062524;28;20609;-81
2023/12/05 11:00:48;;;;;;;2.08;1.00;;;;;;;;;;5053898;28;20072;-81
2023/12/05 11:03:15;;;;;;;1.10;0.70;;;;;;;;;;5026927;28;20503;-81
2023/12/05 11:05:42;;;;;;;1.30;0.80;;;;;;;;;;5061756;28;20469;-81
2023/12/05 11:08:09;;;;;;;1.08;0.68;;;;;;;;;;5075549;28;20049;-80
2023/12/05 11:10:36;;;;;;;0.63;0.60;;;;;;;;;;5062889;28;20052;-79
2023/12/05 11:13:03;;;;;;;2.10;0.70;;;;;;;;;;5060931;28;20056;-80
2023/12/05 11:15:34;;;;;;;1.30;0.70;;;;;;;;;;5068901;28;20049;-80
2023/12/05 11:18:12;;;;;;;1.70;0.70;;;;;;;;;;5049009;28;20053;-81
2023/12/05 11:21:08;;;;;;;0.60;0.60;;;;;;;;;;5056655;28;20048;-79
2023/12/05 11:23:38;;;;;;;1.60;0.55;;;;;;;;;;5053948;28;20053;-80
2023/12/05 11:26:19;;;;;;;2.15;0.95;;;;;;;;;;5078004;28;20078;-80
2023/12/05 11:29:20;;;;;;;1.27;0.68;;;;;;;;;;5057514;28;20049;-79
2023/12/05 11:32:09;;;;;;;1.65;0.50;;;;;;;;;;5060882;28;20126;-80
2023/12/05 11:34:58;;;;;;;1.83;0.75;;;;;;;;;;5069489;28;20312;-79
2023/12/05 11:37:39;;;;;;;2.35;0.60;;;;;;;;;;5072404;28;20118;-80
2023/12/05 11:40:07;;;;;;;2.00;0.60;;;;;;;;;;5054873;28;20126;-79
2023/12/05 11:42:34;;;;;;;1.17;0.70;;;;;;;;;;5075448;28;20049;-80
2023/12/05 11:45:22;;;;;;;0.40;0.40;;;;;;;;;;5050554;28;20475;-79
2023/12/05 11:47:50;;;;;;;2.78;0.40;;;;;;;;;;5055416;28;20098;-80
2023/12/05 11:50:17;;;;;;;1.58;0.60;;;;;;;;;;5051871;28;20091;-78
2023/12/05 11:52:44;;;;;;;1.35;0.60;;;;;;;;;;5090723;28;20048;-80
2023/12/05 11:55:11;;;;;;;1.88;0.60;;;;;;;;;;5070386;28;20081;-80
2023/12/05 11:57:40;;;;;;;2.00;0.70;;;;;;;;;;5054254;28;20059;-79
2023/12/05 12:00:09;;;;;;;0.95;0.50;;;;;;;;;;5038602;28;20136;-81
2023/12/05 12:02:41;;;;;;;1.33;0.77;;;;;;;;;;5040412;28;20477;-80
2023/12/05 12:05:09;;;;;;;0.93;0.60;;;;;;;;;;5055473;28;20071;-79
2023/12/05 12:07:56;;;;;;;2.42;0.65;;;;;;;;;;5053010;28;20059;-79
2023/12/05 12:10:24;;;;;;;1.23;0.70;;;;;;;;;;5039124;28;20048;-79
2023/12/05 12:12:53;;;;;;;1.40;0.52;;;;;;;;;;5073698;28;20052;-79
2023/12/05 12:15:23;;;;;;;0.80;0.40;;;;;;;;;;5078472;28;20060;-79
2023/12/05 12:17:50;;;;;;;1.35;0.70;;;;;;;;;;5073336;28;20600;-77
2023/12/05 12:20:17;;;;;;;2.00;0.80;;;;;;;;;;5061880;28;20056;-80
2023/12/05 12:22:49;;;;;;;4.35;1.10;;;;;;;;;;5052993;28;20456;-81
2023/12/05 12:25:17;;;;;;;3.30;1.70;;;;;;;;;;5054961;28;20610;-82
2023/12/05 12:27:44;;;;;;;1.05;0.90;;;;;;;;;;5059623;28;21453;-81
2023/12/05 12:30:17;;;;;;;2.50;1.60;;;;;;;;;;5069335;28;20112;-84
2023/12/05 12:32:55;;;;;;;2.47;1.23;;;;;;;;;;5045090;28;20091;-79
2023/12/05 12:35:24;;;;;;;3.42;0.80;;;;;;;;;;5072766;28;20049;-80
2023/12/05 12:37:52;;;;;;;2.22;0.80;;;;;;;;;;5059178;28;20045;-80
2023/12/05 12:40:21;;;;;;;2.95;1.10;;;;;;;;;;5038422;28;20475;-79
2023/12/05 12:42:51;;;;;;;2.25;1.10;;;;;;;;;;5068926;28;20103;-79
2023/12/05 12:45:19;;;;;;;1.05;0.60;;;;;;;;;;5052587;28;20098;-80
2023/12/05 12:47:45;;;;;;;1.95;0.70;;;;;;;;;;5050405;28;20523;-80
2023/12/05 12:50:13;;;;;;;2.70;1.45;;;;;;;;;;5058669;28;20056;-79
2023/12/05 12:52:41;;;;;;;1.75;1.15;;;;;;;;;;5069899;28;20048;-79
2023/12/05 12:55:11;;;;;;;1.77;0.80;;;;;;;;;;5060325;28;20065;-80
2023/12/05 12:57:40;;;;;;;2.20;0.70;;;;;;;;;;5068614;28;20068;-80
2023/12/05 13:00:09;;;;;;;1.95;1.00;;;;;;;;;;5055386;28;20088;-79
2023/12/05 13:02:58;;;;;;;2.53;0.63;;;;;;;;;;5071136;28;20056;-79
2023/12/05 13:05:40;;;;;;;0.73;0.60;;;;;;;;;;5069190;28;20056;-80
2023/12/05 13:08:07;;;;;;;1.55;0.85;;;;;;;;;;5068088;28;20061;-79
2023/12/05 13:10:38;;;;;;;1.80;1.33;;;;;;;;;;5072411;28;20460;-78
2023/12/05 13:13:05;;;;;;;2.47;1.02;;;;;;;;;;5068387;28;20053;-80
2023/12/05 13:15:32;;;;;;;1.13;0.50;;;;;;;;;;5055341;28;20056;-79
2023/12/05 13:18:01;;;;;;;0.68;0.40;;;;;;;;;;5055647;28;20074;-79
2023/12/05 13:20:28;;;;;;;1.60;1.35;;;;;;;;;;5065824;28;20090;-80
2023/12/05 13:22:55;;;;;;;1.17;0.73;;;;;;;;;;5048448;28;20060;-79
2023/12/05 13:25:23;;;;;;;1.35;0.75;;;;;;;;;;5062948;28;20074;-80
2023/12/05 13:28:01;;;;;;;2.40;0.70;;;;;;;;;;5056931;28;20126;-79
2023/12/05 13:30:28;;;;;;;2.65;0.90;;;;;;;;;;5061208;28;20147;-80
2023/12/05 13:32:56;;;;;;;3.70;0.73;;;;;;;;;;5073342;28;20630;-79
2023/12/05 13:35:23;;;;;;;1.35;0.60;;;;;;;;;;5052679;28;20053;-80
2023/12/05 13:37:51;;;;;;;2.78;1.02;;;;;;;;;;5058776;28;20049;-79
2023/12/05 13:40:18;;;;;;;3.00;1.48;;;;;;;;;;5036852;28;20053;-80
2023/12/05 13:42:46;;;;;;;3.72;0.63;;;;;;;;;;5053208;28;20127;-79
2023/12/05 13:45:13;;;;;;;1.70;1.05;;;;;;;;;;5083694;28;20083;-79
2023/12/05 13:47:42;;;;;;;3.38;1.40;;;;;;;;;;5083945;28;20048;-80
2023/12/05 13:50:10;;;;;;;2.28;0.80;;;;;;;;;;5072200;28;20048;-80
2023/12/05 13:52:37;;;;;;;2.70;1.00;;;;;;;;;;5048372;28;20645;-81
2023/12/05 13:55:05;;;;;;;1.92;0.90;;;;;;;;;;5051808;28;20392;-81
2023/12/05 13:57:32;;;;;;;1.63;0.93;;;;;;;;;;5055865;28;20052;-80
2023/12/05 13:59:59;;;;;;;3.03;1.23;;;;;;;;;;5048682;28;20045;-80
2023/12/05 14:02:26;;;;;;;2.53;1.10;;;;;;;;;;5044509;28;20098;-78
2023/12/05 14:04:53;;;;;;;1.95;1.10;;;;;;;;;;5053965;28;20529;-78
2023/12/05 14:07:20;;;;;;;1.38;0.90;;;;;;;;;;5053032;28;20140;-78
2023/12/05 14:09:47;;;;;;;3.40;0.80;;;;;;;;;;5069764;28;20083;-78
2023/12/05 14:12:14;;;;;;;0.80;0.50;;;;;;;;;;5084839;28;20059;-78
2023/12/05 14:14:42;;;;;;;1.23;0.77;;;;;;;;;;5066577;28;20453;-78
2023/12/05 14:17:09;;;;;;;2.20;0.93;;;;;;;;;;5064061;28;20110;-78
2023/12/05 14:19:36;;;;;;;1.70;0.73;;;;;;;;;;5053055;28;20103;-78
2023/12/05 14:22:04;;;;;;;1.60;0.77;;;;;;;;;;5080755;28;20088;-78
2023/12/05 14:24:31;;;;;;;2.20;0.88;;;;;;;;;;5054724;28;20037;-78
2023/12/05 14:26:59;;;;;;;1.38;0.82;;;;;;;;;;5063327;28;20136;-79
2023/12/05 14:29:26;;;;;;;2.05;1.08;;;;;;;;;;5023369;28;20056;-78
2023/12/05 14:31:53;;;;;;;2.80;1.35;;;;;;;;;;5052804;28;20055;-79
2023/12/05 14:34:20;;;;;;;3.63;1.65;;;;;;;;;;5069636;28;20049;-79
2023/12/05 14:36:47;;;;;;;3.75;1.20;;;;;;;;;;5063807;28;20083;-79
2023/12/05 14:39:17;;;;;;;4.65;1.80;;;;;;;;;;5068990;28;20049;-79
2023/12/05 14:41:48;;;;;;;2.45;1.63;;;;;;;;;;5068724;28;20052;-79
2023/12/05 14:44:15;;;;;;;3.40;1.05;;;;;;;;;;5052521;28;20057;-79
2023/12/05 14:46:42;;;;;;;3.80;1.52;;;;;;;;;;5048812;28;20044;-79
2023/12/05 14:49:09;;;;;;;2.72;0.95;;;;;;;;;;5054987;28;20052;-79